sensor_id;sensor_type;location;lat;lon;timestamp;temperature;humidity
53800;DHT22;39708;53.210;6.948;2023-03-07T00:00:31;3.00;99.90
53800;DHT22;39708;53.210;6.948;2023-03-07T00:02:57;2.70;99.90
53800;DHT22;39708;53.210;6.948;2023-03-07T00:05:22;2.60;99.90
53800;DHT22;39708;53.210;6.948;2023-03-07T00:07:48;2.50;99.90
53800;DHT22;39708;53.210;6.948;2023-03-07T00:10:14;2.30;99.90
53800;DHT22;39708;53.210;6.948;2023-03-07T00:12:39;2.30;99.90
53800;DHT22;39708;53.210;6.948;2023-03-07T00:15:05;2.40;99.90
53800;DHT22;39708;53.210;6.948;2023-03-07T00:17:37;2.30;99.90
53800;DHT22;39708;53.210;6.948;2023-03-07T00:20:04;2.30;99.90
53800;DHT22;39708;53.210;6.948;2023-03-07T00:22:34;2.20;99.90
53800;DHT22;39708;53.210;6.948;2023-03-07T00:25:00;2.10;99.90
53800;DHT22;39708;53.210;6.948;2023-03-07T00:27:26;2.10;99.90
53800;DHT22;39708;53.210;6.948;2023-03-07T00:29:52;2.00;99.90
53800;DHT22;39708;53.210;6.948;2023-03-07T00:32:17;2.10;99.90
53800;DHT22;39708;53.210;6.948;2023-03-07T00:34:43;2.10;99.90
53800;DHT22;39708;53.210;6.948;2023-03-07T00:37:08;2.30;99.90
53800;DHT22;39708;53.210;6.948;2023-03-07T00:39:34;2.10;99.90
53800;DHT22;39708;53.210;6.948;2023-03-07T00:42:00;2.20;99.90
53800;DHT22;39708;53.210;6.948;2023-03-07T00:44:25;2.30;99.90
53800;DHT22;39708;53.210;6.948;2023-03-07T00:46:54;2.20;99.90
53800;DHT22;39708;53.210;6.948;2023-03-07T00:49:21;2.40;99.90
53800;DHT22;39708;53.210;6.948;2023-03-07T00:51:46;2.60;99.90
53800;DHT22;39708;53.210;6.948;2023-03-07T00:54:12;2.60;99.90
53800;DHT22;39708;53.210;6.948;2023-03-07T00:56:37;2.60;99.90
53800;DHT22;39708;53.210;6.948;2023-03-07T00:59:03;2.70;99.90
53800;DHT22;39708;53.210;6.948;2023-03-07T01:01:29;2.70;99.90
53800;DHT22;39708;53.210;6.948;2023-03-07T01:03:54;2.70;99.90
53800;DHT22;39708;53.210;6.948;2023-03-07T01:06:25;2.70;99.90
53800;DHT22;39708;53.210;6.948;2023-03-07T01:08:52;2.70;99.90
53800;DHT22;39708;53.210;6.948;2023-03-07T01:11:18;2.70;99.90
53800;DHT22;39708;53.210;6.948;2023-03-07T01:13:43;2.70;99.90
53800;DHT22;39708;53.210;6.948;2023-03-07T01:16:24;2.70;99.90
53800;DHT22;39708;53.210;6.948;2023-03-07T01:18:56;2.70;99.90
53800;DHT22;39708;53.210;6.948;2023-03-07T01:21:32;2.80;99.90
53800;DHT22;39708;53.210;6.948;2023-03-07T01:23:59;2.80;99.90
53800;DHT22;39708;53.210;6.948;2023-03-07T01:26:27;2.90;99.90
53800;DHT22;39708;53.210;6.948;2023-03-07T01:28:55;2.90;99.90
53800;DHT22;39708;53.210;6.948;2023-03-07T01:31:22;2.90;99.90
53800;DHT22;39708;53.210;6.948;2023-03-07T01:33:49;2.90;99.90
53800;DHT22;39708;53.210;6.948;2023-03-07T01:36:21;3.00;99.90
53800;DHT22;39708;53.210;6.948;2023-03-07T01:38:53;3.00;99.90
53800;DHT22;39708;53.210;6.948;2023-03-07T01:41:19;3.00;99.90
53800;DHT22;39708;53.210;6.948;2023-03-07T01:43:45;3.00;99.90
53800;DHT22;39708;53.210;6.948;2023-03-07T01:48:53;3.00;99.90
53800;DHT22;39708;53.210;6.948;2023-03-07T01:51:20;3.00;99.90
53800;DHT22;39708;53.210;6.948;2023-03-07T01:53:47;3.00;99.90
53800;DHT22;39708;53.210;6.948;2023-03-07T01:56:15;3.00;99.90
53800;DHT22;39708;53.210;6.948;2023-03-07T01:58:41;2.90;99.90
53800;DHT22;39708;53.210;6.948;2023-03-07T02:01:09;2.90;99.90
53800;DHT22;39708;53.210;6.948;2023-03-07T02:03:58;2.90;99.90
53800;DHT22;39708;53.210;6.948;2023-03-07T02:06:26;3.00;99.90
53800;DHT22;39708;53.210;6.948;2023-03-07T02:08:54;2.90;99.90
53800;DHT22;39708;53.210;6.948;2023-03-07T02:11:20;2.90;99.90
53800;DHT22;39708;53.210;6.948;2023-03-07T02:13:46;2.80;99.90
53800;DHT22;39708;53.210;6.948;2023-03-07T02:16:12;2.80;99.90
53800;DHT22;39708;53.210;6.948;2023-03-07T02:18:43;2.80;99.90
53800;DHT22;39708;53.210;6.948;2023-03-07T02:24:09;2.70;99.90
53800;DHT22;39708;53.210;6.948;2023-03-07T02:26:43;2.70;99.90
53800;DHT22;39708;53.210;6.948;2023-03-07T02:29:08;2.70;99.90
53800;DHT22;39708;53.210;6.948;2023-03-07T02:31:34;3.10;99.90
53800;DHT22;39708;53.210;6.948;2023-03-07T02:34:00;2.60;99.90
53800;DHT22;39708;53.210;6.948;2023-03-07T02:36:32;2.70;99.90
53800;DHT22;39708;53.210;6.948;2023-03-07T02:39:00;2.60;99.90
53800;DHT22;39708;53.210;6.948;2023-03-07T02:41:30;2.60;99.90
53800;DHT22;39708;53.210;6.948;2023-03-07T02:43:56;2.60;99.90
53800;DHT22;39708;53.210;6.948;2023-03-07T02:46:22;2.60;99.90
53800;DHT22;39708;53.210;6.948;2023-03-07T02:48:48;2.90;99.90
53800;DHT22;39708;53.210;6.948;2023-03-07T02:51:14;2.20;99.90
53800;DHT22;39708;53.210;6.948;2023-03-07T02:53:40;2.00;99.90
53800;DHT22;39708;53.210;6.948;2023-03-07T02:56:06;2.70;99.90
53800;DHT22;39708;53.210;6.948;2023-03-07T02:58:32;1.70;99.90
53800;DHT22;39708;53.210;6.948;2023-03-07T03:00:58;1.50;99.90
53800;DHT22;39708;53.210;6.948;2023-03-07T03:03:23;1.40;99.90
53800;DHT22;39708;53.210;6.948;2023-03-07T03:05:49;1.10;99.90
53800;DHT22;39708;53.210;6.948;2023-03-07T03:08:15;1.00;99.90
53800;DHT22;39708;53.210;6.948;2023-03-07T03:10:40;0.90;99.90
53800;DHT22;39708;53.210;6.948;2023-03-07T03:13:06;0.80;99.90
53800;DHT22;39708;53.210;6.948;2023-03-07T03:15:32;0.90;99.90
53800;DHT22;39708;53.210;6.948;2023-03-07T03:17:57;0.90;99.90
53800;DHT22;39708;53.210;6.948;2023-03-07T03:20:23;1.00;99.90
53800;DHT22;39708;53.210;6.948;2023-03-07T03:22:51;0.90;99.90
53800;DHT22;39708;53.210;6.948;2023-03-07T03:25:17;0.80;99.90
53800;DHT22;39708;53.210;6.948;2023-03-07T03:27:45;1.10;99.90
53800;DHT22;39708;53.210;6.948;2023-03-07T03:30:12;1.10;99.90
53800;DHT22;39708;53.210;6.948;2023-03-07T03:32:39;1.20;99.90
53800;DHT22;39708;53.210;6.948;2023-03-07T03:35:06;1.30;99.90
53800;DHT22;39708;53.210;6.948;2023-03-07T03:37:33;1.30;99.90
53800;DHT22;39708;53.210;6.948;2023-03-07T03:39:58;1.50;99.90
53800;DHT22;39708;53.210;6.948;2023-03-07T03:42:24;1.70;99.90
53800;DHT22;39708;53.210;6.948;2023-03-07T03:44:50;1.70;99.90
53800;DHT22;39708;53.210;6.948;2023-03-07T03:47:16;2.90;99.90
53800;DHT22;39708;53.210;6.948;2023-03-07T03:49:41;1.60;99.90
53800;DHT22;39708;53.210;6.948;2023-03-07T03:52:07;1.70;99.90
53800;DHT22;39708;53.210;6.948;2023-03-07T03:54:33;1.80;99.90
53800;DHT22;39708;53.210;6.948;2023-03-07T03:56:59;1.80;99.90
53800;DHT22;39708;53.210;6.948;2023-03-07T03:59:25;2.20;99.90
53800;DHT22;39708;53.210;6.948;2023-03-07T04:01:50;1.80;99.90
53800;DHT22;39708;53.210;6.948;2023-03-07T04:04:16;1.90;99.90
53800;DHT22;39708;53.210;6.948;2023-03-07T04:06:42;1.90;99.90
53800;DHT22;39708;53.210;6.948;2023-03-07T04:09:08;2.00;99.90
53800;DHT22;39708;53.210;6.948;2023-03-07T04:11:35;2.30;99.90
53800;DHT22;39708;53.210;6.948;2023-03-07T04:14:01;1.80;99.90
53800;DHT22;39708;53.210;6.948;2023-03-07T04:16:26;1.70;99.90
53800;DHT22;39708;53.210;6.948;2023-03-07T04:18:53;1.30;99.90
53800;DHT22;39708;53.210;6.948;2023-03-07T04:21:20;1.20;99.90
53800;DHT22;39708;53.210;6.948;2023-03-07T04:23:46;1.00;99.90
53800;DHT22;39708;53.210;6.948;2023-03-07T04:26:14;1.10;99.90
53800;DHT22;39708;53.210;6.948;2023-03-07T04:28:41;1.40;99.90
53800;DHT22;39708;53.210;6.948;2023-03-07T04:31:08;1.60;99.90
53800;DHT22;39708;53.210;6.948;2023-03-07T04:33:33;1.00;99.90
53800;DHT22;39708;53.210;6.948;2023-03-07T04:35:59;1.00;99.90
53800;DHT22;39708;53.210;6.948;2023-03-07T04:38:24;1.20;99.90
53800;DHT22;39708;53.210;6.948;2023-03-07T04:40:50;1.00;99.90
53800;DHT22;39708;53.210;6.948;2023-03-07T04:43:16;1.00;99.90
53800;DHT22;39708;53.210;6.948;2023-03-07T04:45:41;1.00;99.90
53800;DHT22;39708;53.210;6.948;2023-03-07T04:48:07;1.10;99.90
53800;DHT22;39708;53.210;6.948;2023-03-07T04:50:33;1.00;99.90
53800;DHT22;39708;53.210;6.948;2023-03-07T04:52:58;1.10;99.90
53800;DHT22;39708;53.210;6.948;2023-03-07T04:55:24;1.00;99.90
53800;DHT22;39708;53.210;6.948;2023-03-07T04:57:49;0.90;99.90
53800;DHT22;39708;53.210;6.948;2023-03-07T05:00:17;1.00;99.90
53800;DHT22;39708;53.210;6.948;2023-03-07T05:02:43;1.00;99.90
53800;DHT22;39708;53.210;6.948;2023-03-07T05:05:10;0.90;99.90
53800;DHT22;39708;53.210;6.948;2023-03-07T05:07:36;0.90;99.90
53800;DHT22;39708;53.210;6.948;2023-03-07T05:10:01;0.90;99.90
53800;DHT22;39708;53.210;6.948;2023-03-07T05:12:27;0.90;99.90
53800;DHT22;39708;53.210;6.948;2023-03-07T05:14:52;0.90;99.90
53800;DHT22;39708;53.210;6.948;2023-03-07T05:17:18;1.00;99.90
53800;DHT22;39708;53.210;6.948;2023-03-07T05:19:44;1.40;99.90
53800;DHT22;39708;53.210;6.948;2023-03-07T05:22:10;1.30;99.90
53800;DHT22;39708;53.210;6.948;2023-03-07T05:24:35;1.20;99.90
53800;DHT22;39708;53.210;6.948;2023-03-07T05:27:01;1.60;99.90
53800;DHT22;39708;53.210;6.948;2023-03-07T05:29:27;1.10;99.90
53800;DHT22;39708;53.210;6.948;2023-03-07T05:31:54;1.00;99.90
53800;DHT22;39708;53.210;6.948;2023-03-07T05:34:19;1.00;99.90
53800;DHT22;39708;53.210;6.948;2023-03-07T05:36:45;0.90;99.90
53800;DHT22;39708;53.210;6.948;2023-03-07T05:39:12;0.90;99.90
53800;DHT22;39708;53.210;6.948;2023-03-07T05:41:39;1.20;99.90
53800;DHT22;39708;53.210;6.948;2023-03-07T05:44:05;0.90;99.90
53800;DHT22;39708;53.210;6.948;2023-03-07T05:46:31;1.00;99.90
53800;DHT22;39708;53.210;6.948;2023-03-07T05:48:56;1.10;99.90
53800;DHT22;39708;53.210;6.948;2023-03-07T05:51:22;1.20;99.90
53800;DHT22;39708;53.210;6.948;2023-03-07T05:53:47;1.20;99.90
53800;DHT22;39708;53.210;6.948;2023-03-07T05:56:13;1.20;99.90
53800;DHT22;39708;53.210;6.948;2023-03-07T05:58:39;1.10;99.90
53800;DHT22;39708;53.210;6.948;2023-03-07T06:01:05;1.00;99.90
53800;DHT22;39708;53.210;6.948;2023-03-07T06:03:30;1.10;99.90
53800;DHT22;39708;53.210;6.948;2023-03-07T06:05:56;1.10;99.90
53800;DHT22;39708;53.210;6.948;2023-03-07T06:08:22;1.10;99.90
53800;DHT22;39708;53.210;6.948;2023-03-07T06:10:49;1.00;99.90
53800;DHT22;39708;53.210;6.948;2023-03-07T06:13:17;1.10;99.90
53800;DHT22;39708;53.210;6.948;2023-03-07T06:15:43;1.20;99.90
53800;DHT22;39708;53.210;6.948;2023-03-07T06:18:10;1.50;99.90
53800;DHT22;39708;53.210;6.948;2023-03-07T06:20:38;2.10;99.90
53800;DHT22;39708;53.210;6.948;2023-03-07T06:23:04;1.80;99.90
53800;DHT22;39708;53.210;6.948;2023-03-07T06:25:30;1.90;99.90
53800;DHT22;39708;53.210;6.948;2023-03-07T06:27:55;1.80;99.90
53800;DHT22;39708;53.210;6.948;2023-03-07T06:30:25;2.20;99.90
53800;DHT22;39708;53.210;6.948;2023-03-07T06:32:51;1.50;99.90
53800;DHT22;39708;53.210;6.948;2023-03-07T06:35:16;1.60;99.90
53800;DHT22;39708;53.210;6.948;2023-03-07T06:37:42;1.50;99.90
53800;DHT22;39708;53.210;6.948;2023-03-07T06:40:09;1.50;99.90
53800;DHT22;39708;53.210;6.948;2023-03-07T06:42:35;1.50;99.90
53800;DHT22;39708;53.210;6.948;2023-03-07T06:45:01;1.40;99.90
53800;DHT22;39708;53.210;6.948;2023-03-07T06:47:27;1.50;99.90
53800;DHT22;39708;53.210;6.948;2023-03-07T06:49:53;1.40;99.90
53800;DHT22;39708;53.210;6.948;2023-03-07T06:52:20;1.50;99.90
53800;DHT22;39708;53.210;6.948;2023-03-07T06:54:46;1.40;99.90
53800;DHT22;39708;53.210;6.948;2023-03-07T06:57:11;1.40;99.90
53800;DHT22;39708;53.210;6.948;2023-03-07T06:59:37;1.50;99.90
53800;DHT22;39708;53.210;6.948;2023-03-07T07:02:03;1.60;99.90
53800;DHT22;39708;53.210;6.948;2023-03-07T07:04:29;1.60;99.90
53800;DHT22;39708;53.210;6.948;2023-03-07T07:06:54;1.30;99.90
53800;DHT22;39708;53.210;6.948;2023-03-07T07:09:20;1.10;99.90
53800;DHT22;39708;53.210;6.948;2023-03-07T07:11:46;0.90;99.90
53800;DHT22;39708;53.210;6.948;2023-03-07T07:14:11;0.80;99.90
53800;DHT22;39708;53.210;6.948;2023-03-07T07:16:37;0.60;99.90
53800;DHT22;39708;53.210;6.948;2023-03-07T07:19:03;0.60;99.90
53800;DHT22;39708;53.210;6.948;2023-03-07T07:21:29;0.60;99.90
53800;DHT22;39708;53.210;6.948;2023-03-07T07:23:56;0.80;99.90
53800;DHT22;39708;53.210;6.948;2023-03-07T07:26:22;0.70;99.90
53800;DHT22;39708;53.210;6.948;2023-03-07T07:28:49;1.00;99.90
53800;DHT22;39708;53.210;6.948;2023-03-07T07:31:15;0.90;99.90
53800;DHT22;39708;53.210;6.948;2023-03-07T07:33:40;1.20;99.90
53800;DHT22;39708;53.210;6.948;2023-03-07T07:36:07;1.50;99.90
53800;DHT22;39708;53.210;6.948;2023-03-07T07:38:32;1.70;99.90
53800;DHT22;39708;53.210;6.948;2023-03-07T07:40:58;1.90;99.90
53800;DHT22;39708;53.210;6.948;2023-03-07T07:43:24;2.00;99.90
53800;DHT22;39708;53.210;6.948;2023-03-07T07:45:50;2.10;99.90
53800;DHT22;39708;53.210;6.948;2023-03-07T07:48:15;1.90;99.90
53800;DHT22;39708;53.210;6.948;2023-03-07T07:50:41;1.50;99.90
53800;DHT22;39708;53.210;6.948;2023-03-07T07:53:06;1.30;99.90
53800;DHT22;39708;53.210;6.948;2023-03-07T07:55:32;1.20;99.90
53800;DHT22;39708;53.210;6.948;2023-03-07T07:57:58;1.10;99.90
53800;DHT22;39708;53.210;6.948;2023-03-07T08:00:23;1.40;99.90
53800;DHT22;39708;53.210;6.948;2023-03-07T08:02:49;1.10;99.90
53800;DHT22;39708;53.210;6.948;2023-03-07T08:05:17;1.10;99.90
53800;DHT22;39708;53.210;6.948;2023-03-07T08:07:43;1.20;99.90
53800;DHT22;39708;53.210;6.948;2023-03-07T08:10:10;1.20;99.90
53800;DHT22;39708;53.210;6.948;2023-03-07T08:12:36;1.20;99.90
53800;DHT22;39708;53.210;6.948;2023-03-07T08:15:02;1.20;99.90
53800;DHT22;39708;53.210;6.948;2023-03-07T08:17:28;1.30;99.90
53800;DHT22;39708;53.210;6.948;2023-03-07T08:19:55;1.80;99.90
53800;DHT22;39708;53.210;6.948;2023-03-07T08:22:26;1.40;99.90
53800;DHT22;39708;53.210;6.948;2023-03-07T08:24:51;1.50;99.90
53800;DHT22;39708;53.210;6.948;2023-03-07T08:27:17;1.60;99.90
53800;DHT22;39708;53.210;6.948;2023-03-07T08:29:48;1.60;99.90
53800;DHT22;39708;53.210;6.948;2023-03-07T08:32:14;1.70;99.90
53800;DHT22;39708;53.210;6.948;2023-03-07T08:34:40;1.70;99.90
53800;DHT22;39708;53.210;6.948;2023-03-07T08:37:06;1.90;99.90
53800;DHT22;39708;53.210;6.948;2023-03-07T08:39:31;1.90;99.90
53800;DHT22;39708;53.210;6.948;2023-03-07T08:41:57;2.00;99.90
53800;DHT22;39708;53.210;6.948;2023-03-07T08:44:23;1.90;99.90
53800;DHT22;39708;53.210;6.948;2023-03-07T08:46:49;1.90;99.90
53800;DHT22;39708;53.210;6.948;2023-03-07T08:49:15;1.80;99.90
53800;DHT22;39708;53.210;6.948;2023-03-07T08:51:40;1.70;99.90
53800;DHT22;39708;53.210;6.948;2023-03-07T08:54:06;1.40;99.90
53800;DHT22;39708;53.210;6.948;2023-03-07T08:56:31;1.20;99.90
53800;DHT22;39708;53.210;6.948;2023-03-07T08:58:57;1.00;99.90
53800;DHT22;39708;53.210;6.948;2023-03-07T09:01:23;0.90;99.90
53800;DHT22;39708;53.210;6.948;2023-03-07T09:03:48;0.80;99.90
53800;DHT22;39708;53.210;6.948;2023-03-07T09:06:19;0.60;99.90
53800;DHT22;39708;53.210;6.948;2023-03-07T09:08:46;0.50;99.90
53800;DHT22;39708;53.210;6.948;2023-03-07T09:11:12;0.50;99.90
53800;DHT22;39708;53.210;6.948;2023-03-07T09:13:38;0.60;99.90
53800;DHT22;39708;53.210;6.948;2023-03-07T09:16:07;0.70;99.90
53800;DHT22;39708;53.210;6.948;2023-03-07T09:18:33;0.80;99.90
53800;DHT22;39708;53.210;6.948;2023-03-07T09:21:00;1.20;99.90
53800;DHT22;39708;53.210;6.948;2023-03-07T09:23:25;2.20;99.90
53800;DHT22;39708;53.210;6.948;2023-03-07T09:25:51;1.70;99.90
53800;DHT22;39708;53.210;6.948;2023-03-07T09:28:17;2.00;99.90
53800;DHT22;39708;53.210;6.948;2023-03-07T09:30:43;1.80;99.90
53800;DHT22;39708;53.210;6.948;2023-03-07T09:33:08;1.60;99.90
53800;DHT22;39708;53.210;6.948;2023-03-07T09:35:34;1.80;99.90
53800;DHT22;39708;53.210;6.948;2023-03-07T09:38:00;2.20;99.90
53800;DHT22;39708;53.210;6.948;2023-03-07T09:40:26;2.40;99.90
53800;DHT22;39708;53.210;6.948;2023-03-07T09:43:22;2.60;99.90
53800;DHT22;39708;53.210;6.948;2023-03-07T09:56:29;2.90;99.90
53800;DHT22;39708;53.210;6.948;2023-03-07T09:59:19;3.00;99.90
53800;DHT22;39708;53.210;6.948;2023-03-07T10:01:49;3.00;99.90
53800;DHT22;39708;53.210;6.948;2023-03-07T10:04:28;3.00;99.90
53800;DHT22;39708;53.210;6.948;2023-03-07T10:06:57;3.10;99.90
53800;DHT22;39708;53.210;6.948;2023-03-07T10:09:24;3.10;99.90
53800;DHT22;39708;53.210;6.948;2023-03-07T10:18:14;3.10;99.90
53800;DHT22;39708;53.210;6.948;2023-03-07T10:20:48;3.10;99.90
53800;DHT22;39708;53.210;6.948;2023-03-07T10:23:37;3.10;99.90
53800;DHT22;39708;53.210;6.948;2023-03-07T10:26:10;3.30;99.90
53800;DHT22;39708;53.210;6.948;2023-03-07T10:28:39;3.30;99.90
53800;DHT22;39708;53.210;6.948;2023-03-07T10:31:19;3.50;99.90
53800;DHT22;39708;53.210;6.948;2023-03-07T10:33:48;3.70;99.90
53800;DHT22;39708;53.210;6.948;2023-03-07T10:41:45;3.60;99.90
53800;DHT22;39708;53.210;6.948;2023-03-07T10:44:17;3.60;99.90
53800;DHT22;39708;53.210;6.948;2023-03-07T10:46:45;3.60;99.90
53800;DHT22;39708;53.210;6.948;2023-03-07T10:49:12;3.50;99.90
53800;DHT22;39708;53.210;6.948;2023-03-07T10:54:37;3.50;99.90
53800;DHT22;39708;53.210;6.948;2023-03-07T10:59:32;4.40;99.90
53800;DHT22;39708;53.210;6.948;2023-03-07T11:01:59;3.50;99.90
53800;DHT22;39708;53.210;6.948;2023-03-07T11:04:42;3.70;99.90
53800;DHT22;39708;53.210;6.948;2023-03-07T11:07:24;3.70;99.90
53800;DHT22;39708;53.210;6.948;2023-03-07T11:09:52;3.80;99.90
53800;DHT22;39708;53.210;6.948;2023-03-07T11:12:20;3.80;99.90
53800;DHT22;39708;53.210;6.948;2023-03-07T11:14:57;3.80;99.90
53800;DHT22;39708;53.210;6.948;2023-03-07T11:17:41;3.80;99.90
53800;DHT22;39708;53.210;6.948;2023-03-07T11:20:28;3.90;99.90
53800;DHT22;39708;53.210;6.948;2023-03-07T11:23:13;3.90;99.90
53800;DHT22;39708;53.210;6.948;2023-03-07T11:25:39;4.00;99.90
53800;DHT22;39708;53.210;6.948;2023-03-07T11:33:52;4.00;99.90
53800;DHT22;39708;53.210;6.948;2023-03-07T11:36:30;4.00;99.90
53800;DHT22;39708;53.210;6.948;2023-03-07T11:39:07;5.00;99.90
53800;DHT22;39708;53.210;6.948;2023-03-07T11:47:22;4.40;99.90
53800;DHT22;39708;53.210;6.948;2023-03-07T11:50:31;4.70;99.90
53800;DHT22;39708;53.210;6.948;2023-03-07T12:19:53;2.60;99.90
53800;DHT22;39708;53.210;6.948;2023-03-07T12:25:19;2.60;99.90
53800;DHT22;39708;53.210;6.948;2023-03-07T12:27:52;2.70;99.90
53800;DHT22;39708;53.210;6.948;2023-03-07T12:30:39;2.80;99.90
53800;DHT22;39708;53.210;6.948;2023-03-07T12:33:16;3.00;99.90
53800;DHT22;39708;53.210;6.948;2023-03-07T12:35:48;3.20;99.90
53800;DHT22;39708;53.210;6.948;2023-03-07T12:43:58;3.70;99.90
53800;DHT22;39708;53.210;6.948;2023-03-07T12:46:48;4.10;99.90
53800;DHT22;39708;53.210;6.948;2023-03-07T12:49:27;4.40;99.90
53800;DHT22;39708;53.210;6.948;2023-03-07T12:51:58;4.80;99.90
53800;DHT22;39708;53.210;6.948;2023-03-07T12:54:32;5.10;99.90
53800;DHT22;39708;53.210;6.948;2023-03-07T12:57:00;5.40;99.90
53800;DHT22;39708;53.210;6.948;2023-03-07T12:59:28;5.90;99.90
53800;DHT22;39708;53.210;6.948;2023-03-07T13:02:03;6.00;99.90
53800;DHT22;39708;53.210;6.948;2023-03-07T13:04:37;6.30;99.90
53800;DHT22;39708;53.210;6.948;2023-03-07T13:07:16;6.20;99.90
53800;DHT22;39708;53.210;6.948;2023-03-07T13:09:47;6.30;99.90
53800;DHT22;39708;53.210;6.948;2023-03-07T13:14:42;6.50;99.90
53800;DHT22;39708;53.210;6.948;2023-03-07T13:17:53;6.50;99.90
53800;DHT22;39708;53.210;6.948;2023-03-07T13:27:57;6.50;99.90
53800;DHT22;39708;53.210;6.948;2023-03-07T13:30:23;6.10;99.90
53800;DHT22;39708;53.210;6.948;2023-03-07T13:45:55;5.30;99.90
53800;DHT22;39708;53.210;6.948;2023-03-07T14:01:24;4.70;99.90
53800;DHT22;39708;53.210;6.948;2023-03-07T14:03:54;5.50;99.90
53800;DHT22;39708;53.210;6.948;2023-03-07T14:06:32;5.00;99.90
53800;DHT22;39708;53.210;6.948;2023-03-07T14:08:59;4.70;99.90
53800;DHT22;39708;53.210;6.948;2023-03-07T14:11:43;4.50;99.90
53800;DHT22;39708;53.210;6.948;2023-03-07T14:25:30;4.60;99.90
53800;DHT22;39708;53.210;6.948;2023-03-07T14:27:57;4.50;99.90
53800;DHT22;39708;53.210;6.948;2023-03-07T14:30:26;4.30;99.90
53800;DHT22;39708;53.210;6.948;2023-03-07T14:32:52;4.20;99.90
53800;DHT22;39708;53.210;6.948;2023-03-07T14:35:52;4.10;99.90
53800;DHT22;39708;53.210;6.948;2023-03-07T14:38:23;4.00;99.90
53800;DHT22;39708;53.210;6.948;2023-03-07T14:51:48;4.30;99.90
53800;DHT22;39708;53.210;6.948;2023-03-07T14:54:16;4.50;99.90
53800;DHT22;39708;53.210;6.948;2023-03-07T14:56:44;4.50;99.90
53800;DHT22;39708;53.210;6.948;2023-03-07T14:59:12;4.50;99.90
53800;DHT22;39708;53.210;6.948;2023-03-07T15:01:39;4.60;99.90
53800;DHT22;39708;53.210;6.948;2023-03-07T15:06:58;4.40;99.90
53800;DHT22;39708;53.210;6.948;2023-03-07T15:09:24;4.40;99.90
53800;DHT22;39708;53.210;6.948;2023-03-07T15:14:50;4.20;99.90
53800;DHT22;39708;53.210;6.948;2023-03-07T15:17:20;4.20;99.90
53800;DHT22;39708;53.210;6.948;2023-03-07T15:19:52;4.20;99.90
53800;DHT22;39708;53.210;6.948;2023-03-07T15:22:26;4.20;99.90
53800;DHT22;39708;53.210;6.948;2023-03-07T15:24:52;4.10;99.90
53800;DHT22;39708;53.210;6.948;2023-03-07T15:27:27;4.10;99.90
53800;DHT22;39708;53.210;6.948;2023-03-07T15:29:53;4.10;99.90
53800;DHT22;39708;53.210;6.948;2023-03-07T15:32:37;4.10;99.90
53800;DHT22;39708;53.210;6.948;2023-03-07T15:37:56;4.00;99.90
53800;DHT22;39708;53.210;6.948;2023-03-07T15:40:33;3.50;99.90
53800;DHT22;39708;53.210;6.948;2023-03-07T15:45:41;2.90;99.90
53800;DHT22;39708;53.210;6.948;2023-03-07T15:48:35;2.80;99.90
53800;DHT22;39708;53.210;6.948;2023-03-07T15:51:02;2.40;99.90
53800;DHT22;39708;53.210;6.948;2023-03-07T15:53:36;2.20;99.90
53800;DHT22;39708;53.210;6.948;2023-03-07T15:56:05;1.80;99.90
53800;DHT22;39708;53.210;6.948;2023-03-07T15:58:34;1.70;99.90
53800;DHT22;39708;53.210;6.948;2023-03-07T16:03:55;1.40;99.90
53800;DHT22;39708;53.210;6.948;2023-03-07T16:06:45;1.30;99.90
53800;DHT22;39708;53.210;6.948;2023-03-07T16:09:13;1.20;99.90
53800;DHT22;39708;53.210;6.948;2023-03-07T16:11:40;1.20;99.90
53800;DHT22;39708;53.210;6.948;2023-03-07T16:14:30;1.20;99.90
53800;DHT22;39708;53.210;6.948;2023-03-07T16:19:42;1.20;99.90
53800;DHT22;39708;53.210;6.948;2023-03-07T16:22:13;1.10;99.90
53800;DHT22;39708;53.210;6.948;2023-03-07T16:24:39;1.20;99.90
53800;DHT22;39708;53.210;6.948;2023-03-07T16:27:17;1.10;99.90
53800;DHT22;39708;53.210;6.948;2023-03-07T16:29:44;1.10;99.90
53800;DHT22;39708;53.210;6.948;2023-03-07T16:32:15;1.10;99.90
53800;DHT22;39708;53.210;6.948;2023-03-07T16:34:41;1.10;99.90
53800;DHT22;39708;53.210;6.948;2023-03-07T16:37:07;1.00;99.90
53800;DHT22;39708;53.210;6.948;2023-03-07T16:39:35;1.00;99.90
53800;DHT22;39708;53.210;6.948;2023-03-07T16:42:01;1.00;99.90
53800;DHT22;39708;53.210;6.948;2023-03-07T16:44:27;1.00;99.90
53800;DHT22;39708;53.210;6.948;2023-03-07T16:47:04;0.80;99.90
53800;DHT22;39708;53.210;6.948;2023-03-07T16:49:31;0.70;99.90
53800;DHT22;39708;53.210;6.948;2023-03-07T16:51:57;0.60;99.90
53800;DHT22;39708;53.210;6.948;2023-03-07T16:54:23;0.50;99.90
53800;DHT22;39708;53.210;6.948;2023-03-07T16:56:50;0.40;99.90
53800;DHT22;39708;53.210;6.948;2023-03-07T16:59:19;0.30;99.90
53800;DHT22;39708;53.210;6.948;2023-03-07T17:01:48;0.30;99.90
53800;DHT22;39708;53.210;6.948;2023-03-07T17:04:15;0.30;99.90
53800;DHT22;39708;53.210;6.948;2023-03-07T17:06:41;0.30;99.90
53800;DHT22;39708;53.210;6.948;2023-03-07T17:09:09;0.30;99.90
53800;DHT22;39708;53.210;6.948;2023-03-07T17:11:36;0.10;99.90
53800;DHT22;39708;53.210;6.948;2023-03-07T17:14:04;0.20;99.90
53800;DHT22;39708;53.210;6.948;2023-03-07T17:16:31;0.10;99.90
53800;DHT22;39708;53.210;6.948;2023-03-07T17:18:57;0.10;99.90
53800;DHT22;39708;53.210;6.948;2023-03-07T17:21:22;0.10;99.90
53800;DHT22;39708;53.210;6.948;2023-03-07T17:23:48;0.10;99.90
53800;DHT22;39708;53.210;6.948;2023-03-07T17:26:23;0.10;99.90
53800;DHT22;39708;53.210;6.948;2023-03-07T17:28:51;-0.10;99.90
53800;DHT22;39708;53.210;6.948;2023-03-07T17:31:17;0.00;99.90
53800;DHT22;39708;53.210;6.948;2023-03-07T17:33:43;0.80;99.90
53800;DHT22;39708;53.210;6.948;2023-03-07T17:36:10;0.00;99.90
53800;DHT22;39708;53.210;6.948;2023-03-07T17:38:36;-0.10;99.90
53800;DHT22;39708;53.210;6.948;2023-03-07T17:41:01;0.10;99.90
53800;DHT22;39708;53.210;6.948;2023-03-07T17:43:27;-0.20;99.90
53800;DHT22;39708;53.210;6.948;2023-03-07T17:45:53;-0.20;99.90
53800;DHT22;39708;53.210;6.948;2023-03-07T17:48:18;-0.20;99.90
53800;DHT22;39708;53.210;6.948;2023-03-07T17:50:44;0.00;99.90
53800;DHT22;39708;53.210;6.948;2023-03-07T17:53:10;0.10;99.90
53800;DHT22;39708;53.210;6.948;2023-03-07T17:55:35;0.20;99.90
53800;DHT22;39708;53.210;6.948;2023-03-07T17:58:06;0.60;99.90
53800;DHT22;39708;53.210;6.948;2023-03-07T18:00:32;0.10;99.90
53800;DHT22;39708;53.210;6.948;2023-03-07T18:02:58;0.10;99.90
53800;DHT22;39708;53.210;6.948;2023-03-07T18:05:23;0.10;99.90
53800;DHT22;39708;53.210;6.948;2023-03-07T18:07:51;0.10;99.90
53800;DHT22;39708;53.210;6.948;2023-03-07T18:10:18;0.40;99.90
53800;DHT22;39708;53.210;6.948;2023-03-07T18:12:44;0.50;99.90
53800;DHT22;39708;53.210;6.948;2023-03-07T18:15:16;0.40;99.90
53800;DHT22;39708;53.210;6.948;2023-03-07T18:17:44;0.30;99.90
53800;DHT22;39708;53.210;6.948;2023-03-07T18:20:10;0.30;99.90
53800;DHT22;39708;53.210;6.948;2023-03-07T18:22:37;0.30;99.90
53800;DHT22;39708;53.210;6.948;2023-03-07T18:25:05;0.30;99.90
53800;DHT22;39708;53.210;6.948;2023-03-07T18:27:31;0.40;99.90